Time;durP1;ratioP1;P1;durP2;ratioP2;P2;SDS_P1;SDS_P2;PMS_P1;PMS_P2;Temp;Humidity;BMP_temperature;BMP_pressure;BME280_temperature;BME280_humidity;BME280_pressure;Samples;Min_cycle;Max_cycle;Signal;HPM_P1;HPM_P2
2022/04/05 00:00:19;;;;;;;7.30;4.20;;;11.50;85.70;;;;;;5073858;28;20040;-63
2022/04/05 00:02:45;;;;;;;8.48;4.30;;;11.50;85.70;;;;;;5065711;28;20126;-64
2022/04/05 00:05:10;;;;;;;7.75;4.05;;;11.50;85.60;;;;;;5053777;28;20029;-64
2022/04/05 00:07:36;;;;;;;6.47;3.35;;;11.50;85.60;;;;;;5053771;28;20074;-64
2022/04/05 00:10:01;;;;;;;5.88;2.90;;;11.40;85.40;;;;;;5053976;28;20368;-63
2022/04/05 00:12:27;;;;;;;6.80;2.67;;;11.40;85.30;;;;;;5053944;28;20049;-64
2022/04/05 00:14:53;;;;;;;5.47;2.30;;;11.30;85.30;;;;;;5054138;28;20059;-64
2022/04/05 00:17:19;;;;;;;5.25;2.40;;;11.20;85.20;;;;;;5052166;28;20068;-64
2022/04/05 00:19:44;;;;;;;4.18;1.75;;;11.20;85.10;;;;;;5054627;28;20021;-64
2022/04/05 00:22:10;;;;;;;3.50;1.73;;;11.10;85.00;;;;;;5052431;28;20026;-64
2022/04/05 00:24:35;;;;;;;4.68;1.63;;;11.10;84.90;;;;;;5053957;28;20476;-64
2022/04/05 00:27:01;;;;;;;5.05;1.90;;;11.00;84.80;;;;;;5054336;28;20060;-64
2022/04/05 00:29:27;;;;;;;3.42;1.63;;;11.00;84.70;;;;;;5052857;28;20031;-64
2022/04/05 00:31:53;;;;;;;2.97;1.40;;;11.00;84.70;;;;;;5054191;28;20076;-64
2022/04/05 00:34:19;;;;;;;2.65;1.30;;;10.90;84.60;;;;;;5051523;28;20033;-64
2022/04/05 00:36:45;;;;;;;3.92;1.40;;;10.90;84.50;;;;;;5053847;28;20020;-64
2022/04/05 00:39:11;;;;;;;1.38;1.00;;;10.90;84.50;;;;;;5054973;28;20039;-63
2022/04/05 00:41:37;;;;;;;4.85;1.40;;;10.90;84.50;;;;;;5054267;28;20410;-64
2022/04/05 00:44:03;;;;;;;2.97;1.05;;;10.80;84.30;;;;;;5054707;28;20076;-64
2022/04/05 00:46:29;;;;;;;3.53;1.20;;;10.80;84.30;;;;;;5051662;28;20029;-64
2022/04/05 00:48:57;;;;;;;2.03;1.13;;;10.80;84.30;;;;;;5045107;28;20382;-64
2022/04/05 00:51:23;;;;;;;2.20;1.05;;;10.70;84.30;;;;;;5053876;28;20036;-64
2022/04/05 00:53:53;;;;;;;2.20;1.20;;;10.70;84.30;;;;;;5053347;28;20033;-64
2022/04/05 00:56:20;;;;;;;2.42;1.10;;;10.70;84.20;;;;;;5051283;28;20029;-64
2022/04/05 00:58:48;;;;;;;2.80;1.00;;;10.70;84.10;;;;;;5054582;28;20062;-64
2022/04/05 01:01:18;;;;;;;2.70;1.40;;;10.70;84.00;;;;;;5054795;28;20044;-64
2022/04/05 01:03:49;;;;;;;1.55;0.82;;;10.70;84.00;;;;;;5052519;28;20033;-63
2022/04/05 01:06:19;;;;;;;2.42;1.00;;;10.70;84.00;;;;;;5053410;28;20353;-63
2022/04/05 01:08:48;;;;;;;1.75;1.00;;;10.70;84.00;;;;;;5049885;28;20037;-64
2022/04/05 01:11:14;;;;;;;2.40;1.20;;;10.60;83.90;;;;;;5036218;28;20399;-64
2022/04/05 01:13:40;;;;;;;3.35;1.10;;;10.60;83.90;;;;;;5051029;28;20112;-64
2022/04/05 01:16:06;;;;;;;2.72;1.30;;;10.60;83.90;;;;;;5052727;28;20365;-63
2022/04/05 01:18:33;;;;;;;3.60;1.55;;;10.60;83.90;;;;;;5049589;28;20013;-64
2022/04/05 01:20:59;;;;;;;1.90;1.20;;;10.60;83.80;;;;;;5053407;28;20035;-63
2022/04/05 01:23:25;;;;;;;2.30;1.30;;;10.60;83.70;;;;;;5065192;28;20029;-63
2022/04/05 01:25:52;;;;;;;3.85;1.55;;;10.60;83.60;;;;;;5053642;28;20530;-63
2022/04/05 01:28:19;;;;;;;4.32;1.50;;;10.60;83.70;;;;;;5058613;28;20060;-64
2022/04/05 01:30:44;;;;;;;3.72;1.40;;;10.60;83.60;;;;;;5053996;28;20536;-64
2022/04/05 01:33:10;;;;;;;4.63;1.95;;;10.60;83.60;;;;;;5063374;28;20120;-64
2022/04/05 01:35:36;;;;;;;2.80;1.30;;;10.60;83.60;;;;;;5055558;28;20029;-64
2022/04/05 01:38:03;;;;;;;2.83;1.60;;;10.60;83.50;;;;;;5063062;28;20029;-64
2022/04/05 01:40:29;;;;;;;3.50;1.60;;;10.60;83.50;;;;;;5056323;28;20381;-64
2022/04/05 01:42:55;;;;;;;5.18;1.73;;;10.60;83.50;;;;;;5054418;28;20029;-64
2022/04/05 01:45:20;;;;;;;4.25;1.67;;;10.60;83.50;;;;;;5053873;28;20033;-64
2022/04/05 01:47:47;;;;;;;4.28;1.65;;;10.60;83.40;;;;;;5064265;28;20361;-64
2022/04/05 01:50:13;;;;;;;5.32;1.73;;;10.60;83.30;;;;;;5054252;28;20027;-64
2022/04/05 01:52:38;;;;;;;4.85;1.45;;;10.60;83.30;;;;;;5054093;28;20430;-64
2022/04/05 01:55:06;;;;;;;3.42;1.42;;;10.60;83.30;;;;;;5053721;28;20044;-63
2022/04/05 01:57:32;;;;;;;4.15;1.45;;;10.60;83.20;;;;;;5059660;28;20074;-64
2022/04/05 01:59:58;;;;;;;4.20;1.60;;;10.50;83.10;;;;;;5068080;28;20029;-64
2022/04/05 02:02:23;;;;;;;4.18;1.70;;;10.50;83.10;;;;;;5074355;28;20048;-64
2022/04/05 02:04:49;;;;;;;3.72;1.60;;;10.50;83.10;;;;;;5065742;28;20024;-64
2022/04/05 02:07:18;;;;;;;4.25;1.45;;;10.50;83.20;;;;;;5061149;28;20037;-64
2022/04/05 02:09:47;;;;;;;2.80;1.50;;;10.50;83.20;;;;;;5052907;28;20029;-64
2022/04/05 02:12:13;;;;;;;3.55;1.60;;;10.50;83.20;;;;;;5053034;28;20072;-64
2022/04/05 02:14:59;;;;;;;3.20;1.45;;;10.50;83.20;;;;;;5055889;28;20043;-64
2022/04/05 02:17:41;;;;;;;4.05;1.55;;;10.50;83.20;;;;;;5065292;28;20346;-63
2022/04/05 02:20:12;;;;;;;2.97;1.58;;;10.50;83.30;;;;;;5056940;28;20020;-64
2022/04/05 02:22:37;;;;;;;2.97;1.30;;;10.50;83.30;;;;;;5057487;28;20112;-64
2022/04/05 02:25:12;;;;;;;4.22;1.52;;;10.50;83.30;;;;;;5056035;28;20029;-64
2022/04/05 02:27:41;;;;;;;4.28;2.05;;;10.40;83.30;;;;;;5064970;28;20044;-64
2022/04/05 02:30:10;;;;;;;5.18;1.90;;;10.40;83.30;;;;;;5055821;28;20132;-64
2022/04/05 02:32:37;;;;;;;3.85;1.70;;;10.40;83.30;;;;;;5055903;28;20021;-64
2022/04/05 02:35:04;;;;;;;3.90;1.80;;;10.40;83.30;;;;;;5058463;28;20584;-67
2022/04/05 02:37:31;;;;;;;5.22;2.08;;;10.40;83.30;;;;;;5063992;28;20354;-65
2022/04/05 02:39:57;;;;;;;3.80;1.50;;;10.40;83.30;;;;;;5057678;28;20025;-64
2022/04/05 02:42:23;;;;;;;4.93;1.70;;;10.40;83.30;;;;;;5075925;28;20024;-64
2022/04/05 02:44:49;;;;;;;4.53;1.70;;;10.40;83.30;;;;;;5060365;28;20058;-64
2022/04/05 02:47:15;;;;;;;3.33;1.65;;;10.40;83.30;;;;;;5065884;28;20107;-64
2022/04/05 02:49:42;;;;;;;3.95;1.70;;;10.40;83.30;;;;;;5056696;28;20021;-63
2022/04/05 02:52:16;;;;;;;3.58;1.50;;;10.40;83.30;;;;;;5066707;28;20025;-64
2022/04/05 02:54:48;;;;;;;5.78;1.80;;;10.40;83.30;;;;;;5055537;28;20101;-64
2022/04/05 02:57:18;;;;;;;5.63;1.90;;;10.40;83.30;;;;;;5057518;28;20117;-64
2022/04/05 02:59:44;;;;;;;4.15;1.70;;;10.40;83.30;;;;;;5069698;28;20028;-63
2022/04/05 03:02:10;;;;;;;6.20;2.05;;;10.40;83.30;;;;;;5060065;28;20059;-64
2022/04/05 03:04:36;;;;;;;5.20;1.65;;;10.40;83.20;;;;;;5048876;28;20036;-63
2022/04/05 03:07:03;;;;;;;5.75;2.13;;;10.40;83.20;;;;;;5058246;28;20024;-64
2022/04/05 03:09:29;;;;;;;3.78;1.60;;;10.40;83.30;;;;;;5039334;28;20076;-64
2022/04/05 03:11:56;;;;;;;4.30;1.70;;;10.40;83.30;;;;;;5054827;28;20029;-64
2022/04/05 03:14:23;;;;;;;4.00;1.70;;;10.40;83.30;;;;;;5064626;28;20446;-64
2022/04/05 03:16:49;;;;;;;3.97;2.00;;;10.40;83.30;;;;;;5062558;28;20020;-64
2022/04/05 03:19:18;;;;;;;4.32;2.08;;;10.40;83.30;;;;;;5038344;28;20082;-63
2022/04/05 03:21:46;;;;;;;5.28;2.00;;;10.40;83.30;;;;;;5057027;28;20033;-64
2022/04/05 03:24:11;;;;;;;5.22;2.00;;;10.30;83.30;;;;;;5038507;28;20354;-64
2022/04/05 03:26:37;;;;;;;4.43;2.13;;;10.30;83.30;;;;;;5061652;28;20020;-64
2022/04/05 03:29:03;;;;;;;6.10;2.65;;;10.40;83.30;;;;;;5064816;28;20376;-64
2022/04/05 03:31:29;;;;;;;4.80;1.98;;;10.40;83.30;;;;;;5058312;28;20120;-64
2022/04/05 03:33:56;;;;;;;6.95;2.33;;;10.40;83.30;;;;;;5038934;28;20036;-64
2022/04/05 03:36:22;;;;;;;7.63;2.67;;;10.40;83.30;;;;;;5060257;28;20461;-64
2022/04/05 03:38:48;;;;;;;5.38;2.40;;;10.40;83.30;;;;;;5074940;28;20060;-64
2022/04/05 03:41:15;;;;;;;5.30;2.28;;;10.40;83.30;;;;;;5060904;28;20055;-63
2022/04/05 03:43:43;;;;;;;5.80;2.55;;;10.40;83.30;;;;;;5054619;28;20118;-64
2022/04/05 03:46:10;;;;;;;5.18;2.30;;;10.30;83.20;;;;;;5054060;28;20032;-64
2022/04/05 03:48:36;;;;;;;6.10;2.35;;;10.30;83.20;;;;;;5054618;28;20033;-64
2022/04/05 03:51:09;;;;;;;7.10;2.60;;;10.30;83.20;;;;;;5055223;28;20025;-64
2022/04/05 03:53:36;;;;;;;;;;;10.30;83.20;;;;;;5054983;28;20461;-64
2022/04/05 03:56:03;;;;;;;5.03;1.92;;;10.30;83.10;;;;;;5064481;28;20390;-64
2022/04/05 03:58:30;;;;;;;6.57;2.65;;;10.30;83.20;;;;;;5050019;28;20423;-64
2022/04/05 04:00:56;;;;;;;5.65;2.33;;;10.30;83.20;;;;;;5021974;28;20116;-64
2022/04/05 04:03:28;;;;;;;6.68;2.80;;;10.30;83.20;;;;;;5054565;28;20029;-64
2022/04/05 04:05:54;;;;;;;6.60;2.75;;;10.30;83.20;;;;;;5056054;28;20040;-64
2022/04/05 04:08:20;;;;;;;6.57;2.47;;;10.30;83.20;;;;;;5054395;28;20025;-64
2022/04/05 04:10:48;;;;;;;5.90;2.53;;;10.30;83.20;;;;;;5055664;28;20021;-64
2022/04/05 04:13:15;;;;;;;6.55;2.70;;;10.30;83.20;;;;;;5053929;28;20476;-64
2022/04/05 04:15:46;;;;;;;7.65;2.88;;;10.30;83.30;;;;;;5057721;28;20107;-64
2022/04/05 04:18:11;;;;;;;6.25;2.65;;;10.30;83.30;;;;;;5054059;28;20120;-64
2022/04/05 04:20:39;;;;;;;6.82;3.33;;;10.30;83.40;;;;;;5055451;28;20021;-64
2022/04/05 04:23:06;;;;;;;7.18;3.15;;;10.30;83.40;;;;;;5034451;28;20090;-64
2022/04/05 04:25:31;;;;;;;8.30;3.35;;;10.30;83.30;;;;;;5048253;28;20127;-64
2022/04/05 04:27:58;;;;;;;8.00;3.35;;;10.30;83.30;;;;;;5053566;28;20078;-64
2022/04/05 04:30:23;;;;;;;6.72;3.03;;;10.30;83.30;;;;;;5054165;28;20153;-64
2022/04/05 04:32:49;;;;;;;7.07;3.20;;;10.30;83.30;;;;;;5054544;28;20036;-64
2022/04/05 04:35:15;;;;;;;7.32;3.28;;;10.30;83.30;;;;;;5054594;28;20067;-63
2022/04/05 04:37:41;;;;;;;7.28;3.42;;;10.30;83.30;;;;;;5057110;28;20029;-64
2022/04/05 04:40:07;;;;;;;9.45;3.53;;;10.30;83.40;;;;;;5066002;28;20039;-63
2022/04/05 04:42:33;;;;;;;6.57;3.33;;;10.30;83.40;;;;;;5055398;28;20029;-64
2022/04/05 04:45:00;;;;;;;7.95;3.67;;;10.30;83.40;;;;;;5055817;28;20035;-64
2022/04/05 04:47:26;;;;;;;8.15;4.05;;;10.30;83.40;;;;;;5056235;28;20032;-63
2022/04/05 04:49:52;;;;;;;7.80;4.13;;;10.30;83.40;;;;;;5053523;28;20044;-64
2022/04/05 04:52:17;;;;;;;8.43;4.05;;;10.30;83.50;;;;;;5053911;28;20035;-64
2022/04/05 04:54:43;;;;;;;8.25;4.45;;;10.30;83.50;;;;;;5054474;28;20055;-64
2022/04/05 04:57:08;;;;;;;8.60;4.90;;;10.40;83.50;;;;;;5062762;28;20040;-64
2022/04/05 04:59:34;;;;;;;7.97;4.43;;;10.40;83.50;;;;;;5054553;28;20078;-64
2022/04/05 05:02:00;;;;;;;9.25;4.45;;;10.30;83.40;;;;;;5055798;28;20469;-64
2022/04/05 05:04:26;;;;;;;8.57;4.45;;;10.40;83.50;;;;;;5054197;28;21457;-64
2022/04/05 05:06:53;;;;;;;9.95;5.13;;;10.30;83.60;;;;;;5053084;28;20491;-64
2022/04/05 05:09:18;;;;;;;10.20;5.43;;;10.30;83.60;;;;;;5053363;28;20033;-65
2022/04/05 05:11:44;;;;;;;8.95;4.65;;;10.30;83.60;;;;;;5061509;28;20043;-64
2022/04/05 05:14:10;;;;;;;7.75;4.32;;;10.30;83.60;;;;;;5054478;28;20041;-64
2022/04/05 05:16:36;;;;;;;8.20;4.90;;;10.30;83.60;;;;;;5055095;28;20330;-64
2022/04/05 05:19:02;;;;;;;7.97;4.45;;;10.30;83.60;;;;;;5059178;28;20078;-63
2022/04/05 05:21:28;;;;;;;8.80;5.00;;;10.30;83.60;;;;;;5062219;28;20078;-64
2022/04/05 05:23:54;;;;;;;10.98;5.60;;;10.30;83.60;;;;;;5054792;28;20037;-64
2022/04/05 05:26:19;;;;;;;8.57;4.65;;;10.30;83.70;;;;;;5038385;28;20437;-64
2022/04/05 05:28:45;;;;;;;8.60;5.00;;;10.30;83.70;;;;;;5058523;28;20036;-64
2022/04/05 05:31:11;;;;;;;11.18;6.05;;;10.30;83.70;;;;;;5068701;28;20044;-64
2022/04/05 05:33:36;;;;;;;10.13;5.38;;;10.40;83.80;;;;;;5054643;28;20361;-64
2022/04/05 05:36:02;;;;;;;8.93;4.90;;;10.40;83.80;;;;;;5054459;28;20108;-64
2022/04/05 05:38:28;;;;;;;9.90;5.53;;;10.40;83.80;;;;;;5053564;28;20370;-64
2022/04/05 05:40:54;;;;;;;9.13;5.15;;;10.40;83.80;;;;;;5059262;28;20083;-64
2022/04/05 05:43:22;;;;;;;8.77;4.97;;;10.40;83.80;;;;;;5067528;28;20035;-64
2022/04/05 05:45:47;;;;;;;9.85;6.00;;;10.40;83.80;;;;;;5058012;28;20453;-64
2022/04/05 05:48:13;;;;;;;10.88;5.57;;;10.40;83.80;;;;;;5054788;28;20112;-64
2022/04/05 05:50:38;;;;;;;9.88;5.88;;;10.40;83.80;;;;;;5056298;28;20438;-64
2022/04/05 05:53:04;;;;;;;9.93;6.07;;;10.40;83.80;;;;;;5059516;28;20033;-64
2022/04/05 05:55:30;;;;;;;9.50;5.60;;;10.40;83.80;;;;;;5059004;28;20033;-64
2022/04/05 05:57:56;;;;;;;11.45;5.90;;;10.40;83.80;;;;;;5059489;28;20385;-64
2022/04/05 06:00:23;;;;;;;8.60;4.82;;;10.50;83.80;;;;;;5071195;28;20025;-63
2022/04/05 06:02:51;;;;;;;9.77;5.95;;;10.50;83.90;;;;;;5070265;28;20029;-64
2022/04/05 06:05:16;;;;;;;10.85;5.78;;;10.50;83.90;;;;;;5061332;28;20037;-64
2022/04/05 06:07:42;;;;;;;10.20;5.90;;;10.50;83.80;;;;;;5059165;28;20079;-63
2022/04/05 06:10:09;;;;;;;10.25;6.10;;;10.60;83.80;;;;;;5053343;28;20025;-63
2022/04/05 06:12:40;;;;;;;10.20;6.07;;;10.60;83.80;;;;;;5048880;28;20053;-63
2022/04/05 06:15:10;;;;;;;10.48;6.00;;;10.70;83.80;;;;;;5053671;28;20040;-64
2022/04/05 06:17:37;;;;;;;10.63;5.95;;;10.70;83.60;;;;;;5057708;28;20037;-64
2022/04/05 06:20:04;;;;;;;11.75;7.15;;;10.70;83.60;;;;;;5056723;28;20083;-64
2022/04/05 06:22:29;;;;;;;13.55;7.10;;;10.70;83.60;;;;;;5058482;28;20078;-64
2022/04/05 06:24:55;;;;;;;12.45;7.93;;;10.70;83.60;;;;;;5059925;28;20120;-64
2022/04/05 06:27:21;;;;;;;12.57;7.25;;;10.70;83.60;;;;;;5057661;28;20036;-64
2022/04/05 06:29:46;;;;;;;13.68;8.52;;;10.80;83.80;;;;;;5056255;28;20385;-64
2022/04/05 06:32:12;;;;;;;12.95;8.63;;;10.80;83.80;;;;;;5058859;28;20032;-64
2022/04/05 06:34:37;;;;;;;12.60;8.20;;;10.80;83.80;;;;;;5063113;28;20032;-64
2022/04/05 06:37:04;;;;;;;13.52;8.10;;;10.80;83.90;;;;;;5059480;28;20041;-65
2022/04/05 06:39:29;;;;;;;12.73;8.27;;;10.80;83.80;;;;;;5065056;28;20369;-64
2022/04/05 06:41:55;;;;;;;13.13;8.18;;;10.90;84.00;;;;;;5058039;28;20025;-64
2022/04/05 06:44:21;;;;;;;12.98;8.30;;;10.90;84.00;;;;;;5056521;28;20339;-64
2022/04/05 06:46:46;;;;;;;13.93;8.82;;;10.90;83.90;;;;;;5057428;28;20086;-64
2022/04/05 06:49:12;;;;;;;13.30;8.20;;;11.00;84.00;;;;;;5074998;28;20036;-64
2022/04/05 06:51:37;;;;;;;11.00;7.07;;;11.00;84.00;;;;;;5057471;28;20044;-63
2022/04/05 06:54:05;;;;;;;11.27;7.65;;;11.10;84.10;;;;;;5057758;28;20037;-65
2022/04/05 06:56:30;;;;;;;13.13;7.40;;;11.10;84.10;;;;;;5056018;28;20029;-64
2022/04/05 06:58:56;;;;;;;11.65;7.13;;;11.20;84.10;;;;;;5050744;28;20035;-64
2022/04/05 07:01:22;;;;;;;12.82;7.65;;;11.20;84.10;;;;;;5055490;28;20098;-64
2022/04/05 07:03:47;;;;;;;11.38;7.00;;;11.20;84.10;;;;;;5069783;28;20467;-65
2022/04/05 07:06:13;;;;;;;11.68;7.40;;;11.20;84.80;;;;;;5061471;28;20040;-65
2022/04/05 07:08:39;;;;;;;11.95;7.88;;;11.30;84.30;;;;;;5062168;28;20094;-65
2022/04/05 07:11:05;;;;;;;13.00;7.80;;;11.30;84.30;;;;;;5062283;28;20029;-65
2022/04/05 07:13:30;;;;;;;12.88;7.90;;;11.30;84.30;;;;;;5071465;28;20039;-65
2022/04/05 07:15:57;;;;;;;15.75;7.60;;;11.40;84.30;;;;;;5057102;28;20032;-64
2022/04/05 07:18:23;;;;;;;14.88;8.48;;;11.40;84.40;;;;;;5061318;28;20028;-65
2022/04/05 07:20:48;;;;;;;13.23;8.35;;;11.40;84.30;;;;;;5054727;28;20128;-65
2022/04/05 07:23:17;;;;;;;13.73;8.23;;;11.40;84.20;;;;;;5057242;28;20390;-65
2022/04/05 07:25:43;;;;;;;14.55;8.48;;;11.40;84.20;;;;;;5060604;28;20381;-65
2022/04/05 07:28:08;;;;;;;10.77;8.05;;;11.50;84.30;;;;;;5058680;28;20029;-65
2022/04/05 07:30:34;;;;;;;12.35;7.65;;;11.50;84.30;;;;;;5074503;28;20384;-65
2022/04/05 07:33:00;;;;;;;14.57;7.90;;;11.50;84.30;;;;;;5060879;28;20150;-65
2022/04/05 07:35:26;;;;;;;12.68;7.22;;;11.50;84.30;;;;;;5065876;28;20454;-65
2022/04/05 07:37:52;;;;;;;12.18;7.07;;;11.50;84.30;;;;;;5058494;28;20077;-65
2022/04/05 07:40:18;;;;;;;12.52;6.60;;;11.50;84.40;;;;;;5075833;28;20107;-65
2022/04/05 07:42:45;;;;;;;10.90;6.70;;;11.50;84.30;;;;;;5057258;28;20029;-64
2022/04/05 07:45:13;;;;;;;10.90;6.72;;;11.50;84.30;;;;;;5063995;28;20081;-65
2022/04/05 07:47:39;;;;;;;12.05;7.00;;;11.60;84.40;;;;;;5053459;28;20036;-64
2022/04/05 07:50:06;;;;;;;11.18;6.97;;;11.60;84.40;;;;;;5056791;28;20480;-64
2022/04/05 07:52:32;;;;;;;12.90;6.53;;;11.70;84.30;;;;;;5055249;28;20500;-66
2022/04/05 07:54:58;;;;;;;13.02;6.82;;;11.70;84.30;;;;;;5054017;28;20107;-65
2022/04/05 07:57:23;;;;;;;11.70;6.25;;;11.80;84.30;;;;;;5056491;28;20070;-65
2022/04/05 07:59:49;;;;;;;10.57;6.28;;;11.80;84.20;;;;;;5069078;28;20295;-65
2022/04/05 08:02:15;;;;;;;10.90;6.70;;;11.80;84.20;;;;;;5070384;28;20083;-65
2022/04/05 08:04:40;;;;;;;11.02;6.38;;;11.80;84.20;;;;;;5065907;28;20036;-65
2022/04/05 08:07:06;;;;;;;11.75;6.10;;;11.80;84.20;;;;;;5056406;28;20115;-65
2022/04/05 08:09:32;;;;;;;11.90;6.15;;;11.90;84.20;;;;;;5067163;28;20365;-64
2022/04/05 08:11:58;;;;;;;10.45;6.45;;;11.90;84.30;;;;;;5075388;28;20044;-65
2022/04/05 08:14:27;;;;;;;10.13;5.57;;;11.90;84.30;;;;;;5054598;28;20454;-65
2022/04/05 08:16:55;;;;;;;9.27;5.28;;;11.90;84.40;;;;;;5054550;28;20066;-65
2022/04/05 08:19:21;;;;;;;10.88;5.82;;;11.90;84.40;;;;;;5030380;28;20082;-65
2022/04/05 08:21:47;;;;;;;9.32;5.82;;;11.90;84.40;;;;;;5061622;28;20417;-65
2022/04/05 08:24:12;;;;;;;9.38;5.25;;;11.90;84.40;;;;;;5057734;28;20025;-65
2022/04/05 08:26:38;;;;;;;9.38;5.05;;;11.90;84.40;;;;;;5054614;28;20445;-64
2022/04/05 08:29:03;;;;;;;9.27;5.35;;;11.90;84.40;;;;;;5061396;28;20067;-64
2022/04/05 08:31:29;;;;;;;8.52;4.90;;;11.90;84.40;;;;;;5074850;28;20373;-65
2022/04/05 08:33:55;;;;;;;7.38;4.15;;;11.90;84.40;;;;;;5064280;28;20036;-62
2022/04/05 08:36:21;;;;;;;8.45;4.50;;;11.90;84.40;;;;;;5065918;28;20067;-63
2022/04/05 08:38:46;;;;;;;10.75;5.13;;;12.00;84.40;;;;;;5053430;28;20044;-62
2022/04/05 08:41:13;;;;;;;9.18;4.65;;;12.00;84.30;;;;;;5054968;28;20074;-62
2022/04/05 08:43:42;;;;;;;10.52;5.20;;;12.00;84.30;;;;;;5052895;28;20021;-62
2022/04/05 08:46:10;;;;;;;7.60;4.30;;;12.00;84.40;;;;;;5054682;28;20385;-61
2022/04/05 08:48:37;;;;;;;8.55;4.47;;;12.10;84.30;;;;;;5054684;28;20358;-62
2022/04/05 08:51:02;;;;;;;8.43;4.20;;;12.10;84.30;;;;;;5054898;28;20029;-62
2022/04/05 08:53:30;;;;;;;8.23;4.80;;;12.20;84.30;;;;;;5054281;28;20021;-62
2022/04/05 08:55:55;;;;;;;7.88;4.70;;;12.20;84.20;;;;;;5054952;28;20040;-61
2022/04/05 08:58:21;;;;;;;8.35;4.95;;;12.20;84.20;;;;;;5051123;28;20013;-62
2022/04/05 09:00:47;;;;;;;10.18;4.97;;;12.30;84.20;;;;;;5052641;28;20176;-62
2022/04/05 09:03:13;;;;;;;10.80;4.43;;;12.30;84.20;;;;;;5052314;28;20043;-64
2022/04/05 09:05:40;;;;;;;11.23;4.85;;;12.30;84.10;;;;;;5053313;28;20060;-64
2022/04/05 09:08:21;;;;;;;7.80;4.40;;;12.40;84.10;;;;;;5052583;28;20021;-64
2022/04/05 09:11:06;;;;;;;7.83;4.73;;;12.40;84.10;;;;;;5053471;28;20029;-62
2022/04/05 09:13:32;;;;;;;9.40;4.97;;;12.40;84.00;;;;;;5053984;28;20029;-63
2022/04/05 09:16:02;;;;;;;8.50;4.85;;;12.50;83.90;;;;;;5054271;28;20033;-63
2022/04/05 09:18:33;;;;;;;8.88;4.90;;;12.60;83.80;;;;;;5036316;28;20052;-63
2022/04/05 09:20:58;;;;;;;9.63;5.20;;;12.70;83.70;;;;;;5053401;28;20033;-62
2022/04/05 09:23:26;;;;;;;9.10;4.65;;;12.70;83.60;;;;;;5055936;28;20078;-63
2022/04/05 09:26:01;;;;;;;10.35;4.78;;;12.70;83.60;;;;;;5070923;28;20025;-62
2022/04/05 09:28:28;;;;;;;10.63;4.85;;;12.70;83.70;;;;;;5068479;28;20361;-62
2022/04/05 09:31:03;;;;;;;7.93;4.53;;;12.80;83.60;;;;;;5058408;28;20091;-62
2022/04/05 09:33:33;;;;;;;8.88;5.13;;;12.80;83.40;;;;;;5058700;28;20037;-63
2022/04/05 09:36:12;;;;;;;9.20;5.38;;;12.90;83.40;;;;;;5057791;28;20358;-63
2022/04/05 09:38:39;;;;;;;8.93;4.55;;;12.90;83.40;;;;;;5056829;28;21412;-63
2022/04/05 09:41:22;;;;;;;9.93;5.40;;;12.90;83.40;;;;;;5058547;28;20454;-63
2022/04/05 09:43:55;;;;;;;8.23;5.15;;;13.00;83.40;;;;;;5058011;28;20593;-64
2022/04/05 09:46:21;;;;;;;8.07;4.90;;;13.10;83.30;;;;;;5057020;28;20025;-64
2022/04/05 09:48:47;;;;;;;9.82;5.07;;;13.10;83.30;;;;;;5057785;28;20104;-63
2022/04/05 09:51:14;;;;;;;9.38;4.70;;;13.10;83.20;;;;;;5057275;28;20132;-64
2022/04/05 09:53:50;;;;;;;10.18;5.35;;;13.10;83.20;;;;;;5057037;28;20044;-64
2022/04/05 09:56:30;;;;;;;10.00;5.07;;;13.00;83.20;;;;;;5058225;28;20028;-63
2022/04/05 09:59:04;;;;;;;9.40;4.00;;;13.00;83.40;;;;;;5057969;28;20075;-64
2022/04/05 10:01:35;;;;;;;8.50;4.20;;;12.90;83.50;;;;;;5040643;28;20104;-63
2022/04/05 10:04:08;;;;;;;8.73;4.72;;;13.10;83.50;;;;;;5056992;28;20029;-63
2022/04/05 10:06:38;;;;;;;7.32;3.95;;;13.20;83.20;;;;;;5036955;28;20050;-63
2022/04/05 10:09:04;;;;;;;7.85;3.95;;;13.40;82.90;;;;;;5046175;28;20036;-64
2022/04/05 10:11:32;;;;;;;7.50;3.63;;;13.50;82.60;;;;;;5057557;28;20039;-63
2022/04/05 10:13:59;;;;;;;6.55;3.45;;;13.60;82.40;;;;;;5058015;28;20033;-64
2022/04/05 10:16:27;;;;;;;7.95;3.80;;;13.50;82.40;;;;;;5056446;28;20056;-64
2022/04/05 10:19:05;;;;;;;8.30;3.47;;;13.50;82.50;;;;;;5056177;28;20021;-64
2022/04/05 10:21:36;;;;;;;7.55;2.78;;;13.40;82.60;;;;;;5056170;28;20123;-63
2022/04/05 10:24:03;;;;;;;6.72;3.10;;;13.30;82.90;;;;;;5056663;28;20108;-64
2022/04/05 10:26:37;;;;;;;6.28;2.95;;;13.10;83.10;;;;;;5058427;28;20821;-63
2022/04/05 10:29:06;;;;;;;6.22;3.05;;;13.10;83.40;;;;;;5064006;28;20035;-64
2022/04/05 10:31:50;;;;;;;8.05;3.47;;;13.00;83.50;;;;;;5059334;28;20049;-65
2022/04/05 10:34:27;;;;;;;7.57;3.78;;;13.00;83.70;;;;;;5073735;28;20092;-64
2022/04/05 10:37:09;;;;;;;10.38;4.03;;;13.00;83.60;;;;;;5056181;28;20464;-63
2022/04/05 10:39:35;;;;;;;;;;;13.00;83.70;;;;;;5057704;28;20021;-63
2022/04/05 10:42:12;;;;;;;7.60;3.95;;;13.00;83.60;;;;;;5056056;28;19909;-64
2022/04/05 10:44:40;;;;;;;7.95;3.92;;;12.90;83.60;;;;;;5062607;28;20036;-64
2022/04/05 10:47:07;;;;;;;8.32;4.78;;;13.00;83.70;;;;;;5051154;28;20449;-64
2022/04/05 10:49:36;;;;;;;7.60;4.28;;;13.00;83.60;;;;;;5067205;28;20433;-64
2022/04/05 10:52:27;;;;;;;8.48;4.45;;;13.00;83.60;;;;;;5056354;28;20039;-64
2022/04/05 10:55:02;;;;;;;8.18;4.95;;;13.10;83.60;;;;;;5036571;28;20080;-64
2022/04/05 10:57:35;;;;;;;8.63;4.55;;;13.10;83.50;;;;;;5059114;28;20025;-64
2022/04/05 11:00:07;;;;;;;11.35;5.40;;;13.10;83.30;;;;;;5056725;28;20489;-64
2022/04/05 11:02:37;;;;;;;9.55;5.05;;;13.10;83.30;;;;;;5056794;28;20040;-63
2022/04/05 11:05:14;;;;;;;9.23;5.50;;;13.10;83.30;;;;;;5055938;28;20040;-64
2022/04/05 11:07:51;;;;;;;8.15;5.10;;;13.10;83.40;;;;;;5057161;28;20044;-64
2022/04/05 11:10:25;;;;;;;9.82;5.68;;;13.10;83.40;;;;;;5038243;28;20033;-64
2022/04/05 11:13:12;;;;;;;10.63;5.30;;;13.10;83.40;;;;;;5054990;28;20116;-64
2022/04/05 11:15:47;;;;;;;8.80;5.22;;;13.10;83.40;;;;;;5056751;28;20350;-64
2022/04/05 11:18:14;;;;;;;8.13;5.32;;;13.10;83.40;;;;;;5059155;28;20090;-63
2022/04/05 11:20:42;;;;;;;10.55;5.38;;;13.10;83.40;;;;;;5058619;28;20021;-63
2022/04/05 11:23:09;;;;;;;9.77;5.53;;;13.00;83.50;;;;;;5054968;28;20021;-64
2022/04/05 11:25:35;;;;;;;8.90;5.13;;;13.00;83.60;;;;;;5057463;28;20049;-63
2022/04/05 11:28:11;;;;;;;9.75;5.20;;;13.10;83.60;;;;;;5053922;28;20044;-64
2022/04/05 11:30:43;;;;;;;8.93;4.97;;;13.20;83.50;;;;;;5058305;28;20057;-64
2022/04/05 11:33:09;;;;;;;8.73;4.65;;;13.20;83.40;;;;;;5052230;28;20347;-63
2022/04/05 11:35:36;;;;;;;12.32;5.63;;;13.20;83.40;;;;;;5036484;28;20029;-64
2022/04/05 11:38:03;;;;;;;8.70;4.93;;;13.20;83.30;;;;;;5035743;28;20013;-63
2022/04/05 11:40:32;;;;;;;10.98;5.55;;;13.10;83.30;;;;;;5042772;28;20033;-63
2022/04/05 11:43:02;;;;;;;9.73;5.55;;;13.10;83.50;;;;;;5036881;28;20419;-63
2022/04/05 11:45:34;;;;;;;8.50;4.47;;;13.20;83.50;;;;;;5054355;28;20040;-64
2022/04/05 11:48:00;;;;;;;8.98;5.03;;;13.20;83.40;;;;;;5054397;28;20065;-63
2022/04/05 11:50:26;;;;;;;8.05;4.30;;;13.20;83.30;;;;;;5036184;28;20037;-63
2022/04/05 11:52:51;;;;;;;9.80;4.43;;;13.20;83.30;;;;;;5065465;28;20393;-63
2022/04/05 11:58:09;;;;;;;8.30;4.85;;;13.30;83.30;;;;;;5038605;28;20374;-64
2022/04/05 12:00:54;;;;;;;9.13;5.28;;;13.40;83.10;;;;;;5060281;28;20050;-64
2022/04/05 12:03:19;;;;;;;9.27;5.28;;;13.50;83.00;;;;;;5058690;28;20021;-64
2022/04/05 12:05:46;;;;;;;10.63;5.00;;;13.50;82.90;;;;;;5055839;28;20040;-64
2022/04/05 12:08:13;;;;;;;10.27;4.65;;;13.60;82.80;;;;;;5038212;28;20082;-63
2022/04/05 12:10:40;;;;;;;8.60;4.85;;;13.60;82.80;;;;;;5055698;28;20039;-63
2022/04/05 12:13:06;;;;;;;9.00;5.13;;;13.60;82.80;;;;;;5054801;28;20029;-63
2022/04/05 12:15:36;;;;;;;7.43;3.88;;;13.60;82.70;;;;;;5047584;28;20094;-64
2022/04/05 12:18:19;;;;;;;10.55;5.00;;;13.70;82.70;;;;;;5055672;28;20032;-63
2022/04/05 12:21:11;;;;;;;8.20;5.10;;;13.70;82.60;;;;;;5059787;28;20033;-63
2022/04/05 12:23:42;;;;;;;9.32;5.18;;;13.90;82.50;;;;;;5059575;28;20087;-63
2022/04/05 12:26:12;;;;;;;9.50;5.28;;;14.00;82.30;;;;;;5064553;28;20127;-63
2022/04/05 12:28:45;;;;;;;10.10;5.15;;;14.00;82.10;;;;;;5050865;28;20338;-64
2022/04/05 12:31:12;;;;;;;9.50;5.60;;;14.10;81.90;;;;;;5033233;28;20116;-64
2022/04/05 12:33:40;;;;;;;10.45;5.57;;;14.10;81.80;;;;;;5060222;28;20040;-65
2022/04/05 12:36:08;;;;;;;11.80;5.57;;;14.10;81.80;;;;;;5056409;28;20059;-64
2022/04/05 12:38:34;;;;;;;10.25;5.00;;;14.10;81.80;;;;;;5053794;28;20117;-65
2022/04/05 12:41:03;;;;;;;9.38;4.70;;;14.10;81.80;;;;;;5063823;28;20100;-64
2022/04/05 12:43:30;;;;;;;10.30;4.82;;;14.10;81.90;;;;;;5053179;28;20414;-64
2022/04/05 12:45:55;;;;;;;10.27;4.88;;;14.00;82.00;;;;;;5053694;28;20047;-65
2022/04/05 12:48:22;;;;;;;8.52;4.65;;;14.00;82.00;;;;;;5061484;28;20111;-65
2022/04/05 12:50:51;;;;;;;8.38;4.47;;;14.00;82.20;;;;;;5059439;28;20029;-65